createdAt,value
2022-08-30T00:02:10.931Z,100170.38
2022-08-30T00:15:12.892Z,100173.67
2022-08-30T00:20:18.583Z,100173.41
2022-08-30T00:25:20.995Z,100175.88
2022-08-30T00:30:23.365Z,100170.89
2022-08-30T00:35:26.014Z,100169.96
2022-08-30T00:40:28.782Z,100169.75
2022-08-30T00:45:33.420Z,100176.52
2022-08-30T00:50:41.740Z,100180.02
2022-08-30T00:55:44.679Z,100177.18
2022-08-30T01:00:53.111Z,100180.84
2022-08-30T01:05:56.407Z,100170.44
2022-08-30T01:10:59.531Z,100176.28
2022-08-30T01:16:02.491Z,100175.87
2022-08-30T01:21:10.864Z,100172.86
2022-08-30T01:26:14.469Z,100180.13
2022-08-30T01:31:18.909Z,100174.16
2022-08-30T01:36:21.483Z,100169.71
2022-08-30T01:41:23.775Z,100168.23
2022-08-30T01:46:27.767Z,100168.02
2022-08-30T01:51:30.398Z,100168.00
2022-08-30T01:56:32.758Z,100162.21
2022-08-30T02:01:36.966Z,100164.95
2022-08-30T02:06:39.580Z,100168.00
2022-08-30T02:11:42.293Z,100165.80
2022-08-30T02:16:44.680Z,100167.42
2022-08-30T02:21:47.053Z,100170.02
2022-08-30T02:26:49.625Z,100171.15
2022-08-30T02:31:52.032Z,100170.97
2022-08-30T02:36:54.389Z,100168.80
2022-08-30T02:41:56.748Z,100173.56
2022-08-30T02:46:59.238Z,100172.95
2022-08-30T02:52:02.617Z,100177.67
2022-08-30T02:57:06.570Z,100176.02
2022-08-30T03:02:09.338Z,100180.09
2022-08-30T03:07:12.609Z,100181.95
2022-08-30T03:12:14.990Z,100181.42
2022-08-30T03:17:17.716Z,100183.45
2022-08-30T03:22:20.040Z,100184.15
2022-08-30T03:27:22.387Z,100188.27
2022-08-30T03:32:24.757Z,100179.17
2022-08-30T03:37:27.669Z,100186.36
2022-08-30T03:42:29.966Z,100191.11
2022-08-30T03:47:32.501Z,100184.77
2022-08-30T03:52:34.852Z,100188.48
2022-08-30T03:57:38.967Z,100192.48
2022-08-30T04:02:45.939Z,100197.33
2022-08-30T04:07:48.312Z,100202.27
2022-08-30T04:12:50.789Z,100202.61
2022-08-30T04:17:54.792Z,100208.31
2022-08-30T04:22:57.432Z,100208.02
2022-08-30T04:28:00.009Z,100212.56
2022-08-30T04:33:02.302Z,100222.11
2022-08-30T04:38:04.652Z,100226.02
2022-08-30T04:43:06.970Z,100217.62
2022-08-30T04:48:10.290Z,100224.17
2022-08-30T04:53:13.215Z,100227.23
2022-08-30T04:58:15.682Z,100232.46
2022-08-30T05:03:18.310Z,100236.60
2022-08-30T05:08:24.630Z,100238.09
2022-08-30T05:13:35.518Z,100246.16
2022-08-30T05:18:39.402Z,100248.94
2022-08-30T05:23:42.200Z,100260.45
2022-08-30T05:28:45.034Z,100267.24
2022-08-30T05:33:49.120Z,100269.23
2022-08-30T05:38:51.712Z,100266.04
2022-08-30T05:43:55.092Z,100271.80
2022-08-30T05:48:57.743Z,100270.20
2022-08-30T05:54:00.354Z,100274.86
2022-08-30T05:59:04.372Z,100281.21
2022-08-30T06:04:07.615Z,100285.67
2022-08-30T06:09:11.412Z,100292.96
2022-08-30T06:14:14.331Z,100300.11
2022-08-30T06:19:17.085Z,100305.83
2022-08-30T06:24:20.803Z,100306.35
2022-08-30T06:29:30.340Z,100303.25
2022-08-30T06:34:32.673Z,100306.36
2022-08-30T06:39:35.949Z,100318.58
2022-08-30T06:44:39.081Z,100316.80
2022-08-30T06:49:41.390Z,100326.96
2022-08-30T06:54:43.809Z,100325.59
2022-08-30T06:59:46.175Z,100331.30
2022-08-30T07:04:48.578Z,100328.02
2022-08-30T07:09:50.930Z,100343.34
2022-08-30T07:14:53.275Z,100330.52
2022-08-30T07:19:55.900Z,100335.20
2022-08-30T07:24:58.251Z,100338.21
2022-08-30T07:30:02.513Z,100338.34
2022-08-30T07:35:05.216Z,100351.08
2022-08-30T07:40:08.008Z,100355.33
2022-08-30T07:45:10.972Z,100345.89
2022-08-30T07:50:13.764Z,100349.48
2022-08-30T07:55:16.582Z,100362.40
2022-08-30T08:06:40.880Z,100372.67
2022-08-30T08:11:43.429Z,100381.96
2022-08-30T08:16:46.554Z,100387.94
2022-08-30T08:21:59.363Z,100389.45
2022-08-30T08:27:11.488Z,100392.42
2022-08-30T08:32:14.157Z,100392.99
2022-08-30T08:37:17.332Z,100404.02
2022-08-30T08:42:23.239Z,100402.33
2022-08-30T08:47:37.451Z,100404.88
2022-08-30T08:53:01.675Z,100407.64
2022-08-30T08:58:04.038Z,100408.85
2022-08-30T09:03:08.132Z,100408.20
2022-08-30T09:08:14.415Z,100411.32
2022-08-30T09:13:18.950Z,100408.67
2022-08-30T09:18:40.428Z,100411.65
2022-08-30T09:23:48.728Z,100411.92
2022-08-30T09:28:51.442Z,100415.56
2022-08-30T09:34:05.003Z,100421.06
2022-08-30T09:39:23.229Z,100424.30
2022-08-30T09:44:36.871Z,100428.41
2022-08-30T09:49:40.611Z,100430.23
2022-08-30T09:54:59.232Z,100426.65
2022-08-30T10:00:08.176Z,100428.48
2022-08-30T10:05:26.573Z,100430.98
2022-08-30T10:10:33.455Z,100443.38
2022-08-30T10:15:40.582Z,100446.84
2022-08-30T10:20:52.716Z,100451.65
2022-08-30T10:25:57.419Z,100447.60
2022-08-30T10:31:03.145Z,100455.94
2022-08-30T10:36:15.330Z,100461.55
2022-08-30T10:41:33.554Z,100467.86
2022-08-30T10:46:48.567Z,100467.27
2022-08-30T10:52:01.426Z,100470.07
2022-08-30T10:57:04.610Z,100470.94
2022-08-30T11:02:24.093Z,100469.34
2022-08-30T11:07:42.784Z,100470.73
2022-08-30T11:13:01.021Z,100470.69
2022-08-30T11:18:13.887Z,100471.38
2022-08-30T11:23:19.264Z,100464.69
2022-08-30T11:28:37.659Z,100475.39
2022-08-30T11:33:47.172Z,100484.23
2022-08-30T11:38:49.648Z,100490.83
2022-08-30T11:43:55.470Z,100493.90
2022-08-30T11:49:01.101Z,100498.20
2022-08-30T11:54:19.324Z,100495.00
2022-08-30T11:59:37.579Z,100496.05
2022-08-30T12:04:45.371Z,100497.33
2022-08-30T12:09:47.654Z,100502.15
2022-08-30T12:14:52.568Z,100501.59
2022-08-30T12:19:57.161Z,100499.24
2022-08-30T12:24:59.468Z,100500.73
2022-08-30T12:30:05.801Z,100496.77
2022-08-30T12:35:18.070Z,100492.75
2022-08-30T12:40:22.726Z,100490.11
2022-08-30T12:45:27.045Z,100484.20
2022-08-30T12:50:31.877Z,100483.47
2022-08-30T12:55:36.335Z,100484.80
2022-08-30T13:00:42.693Z,100477.07
2022-08-30T13:05:48.269Z,100472.45
2022-08-30T13:10:57.086Z,100468.11
2022-08-30T13:16:15.778Z,100472.34
2022-08-30T13:21:22.652Z,100478.23
2022-08-30T13:26:25.192Z,100475.88
2022-08-30T13:31:30.143Z,100472.21
2022-08-30T13:36:35.369Z,100474.14
2022-08-30T13:41:38.278Z,100475.83
2022-08-30T13:46:48.526Z,100481.42
2022-08-30T13:52:19.040Z,100482.27
2022-08-30T13:57:53.627Z,100479.48
2022-08-30T14:02:46.334Z,100480.59
2022-08-30T14:07:51.292Z,100477.93
2022-08-30T14:12:54.519Z,100470.77
2022-08-30T14:17:58.863Z,100479.46
2022-08-30T14:23:01.438Z,100478.16
2022-08-30T14:28:03.973Z,100479.42
2022-08-30T14:33:06.667Z,100484.84
2022-08-30T14:38:09.029Z,100481.08
2022-08-30T14:43:13.624Z,100480.73
2022-08-30T14:48:16.000Z,100481.83
2022-08-30T14:53:18.384Z,100484.64
2022-08-30T14:58:21.184Z,100486.98
2022-08-30T15:03:24.004Z,100494.46
2022-08-30T15:08:26.406Z,100497.39
2022-08-30T15:13:28.849Z,100492.08
2022-08-30T15:18:32.358Z,100490.33
2022-08-30T15:23:34.731Z,100486.05
2022-08-30T15:28:37.058Z,100488.10
2022-08-30T15:33:39.492Z,100495.02
2022-08-30T15:38:42.412Z,100490.58
2022-08-30T15:43:45.021Z,100482.34
2022-08-30T15:48:47.548Z,100479.10
2022-08-30T15:53:51.053Z,100479.58
2022-08-30T15:58:53.386Z,100480.58
2022-08-30T16:03:56.116Z,100476.19
2022-08-30T16:09:00.077Z,100468.94
2022-08-30T16:14:02.792Z,100471.23
2022-08-30T16:19:05.790Z,100473.58
2022-08-30T16:24:10.758Z,100472.91
2022-08-30T16:29:16.332Z,100473.82
2022-08-30T16:34:20.157Z,100469.94
2022-08-30T16:39:22.905Z,100472.66
2022-08-30T16:44:30.054Z,100468.75
2022-08-30T16:49:32.502Z,100464.84
2022-08-30T16:54:35.210Z,100470.07
2022-08-30T16:59:38.516Z,100467.66
2022-08-30T17:04:42.497Z,100476.17
2022-08-30T17:09:46.310Z,100473.27
2022-08-30T17:14:49.619Z,100476.88
2022-08-30T17:19:51.989Z,100481.77
2022-08-30T17:24:54.294Z,100484.48
2022-08-30T17:29:56.580Z,100480.07
2022-08-30T17:34:59.063Z,100483.02
2022-08-30T17:40:02.179Z,100485.14
2022-08-30T17:45:08.264Z,100488.51
2022-08-30T17:50:11.516Z,100495.89
2022-08-30T17:55:14.131Z,100496.60
2022-08-30T18:00:16.695Z,100506.21
2022-08-30T18:05:24.624Z,100510.33
2022-08-30T18:10:33.976Z,100511.52
2022-08-30T18:15:37.651Z,100517.80
2022-08-30T18:20:44.742Z,100518.95
2022-08-30T18:25:53.295Z,100530.64
2022-08-30T18:30:56.788Z,100534.77
2022-08-30T18:35:59.185Z,100543.84
2022-08-30T18:41:06.039Z,100548.45
2022-08-30T18:46:10.111Z,100549.95
2022-08-30T18:51:13.879Z,100547.03
2022-08-30T18:56:16.827Z,100546.13
2022-08-30T19:01:22.772Z,100547.14
2022-08-30T19:06:25.432Z,100548.14
2022-08-30T19:11:27.766Z,100557.08
2022-08-30T19:16:30.816Z,100559.10
2022-08-30T19:21:33.346Z,100571.30
2022-08-30T19:26:37.238Z,100570.27
2022-08-30T19:31:40.025Z,100568.92
2022-08-30T19:36:43.548Z,100563.56
2022-08-30T19:41:47.325Z,100562.10
2022-08-30T19:46:51.015Z,100565.81
2022-08-30T19:51:53.598Z,100572.48
2022-08-30T19:56:56.339Z,100576.55
2022-08-30T20:01:58.719Z,100577.45
2022-08-30T20:07:01.038Z,100577.08
2022-08-30T20:12:04.146Z,100572.75
2022-08-30T20:17:11.561Z,100570.11
2022-08-30T20:22:15.264Z,100564.02
2022-08-30T20:27:17.787Z,100567.51
2022-08-30T20:32:20.166Z,100568.05
2022-08-30T20:37:23.544Z,100569.23
2022-08-30T20:42:26.343Z,100568.14
2022-08-30T20:47:28.653Z,100569.20
2022-08-30T20:52:30.966Z,100575.96
2022-08-30T20:57:33.824Z,100577.27
2022-08-30T21:02:36.624Z,100577.08
2022-08-30T21:07:40.293Z,100577.17
2022-08-30T21:12:42.786Z,100584.29
2022-08-30T21:17:48.194Z,100583.52
2022-08-30T21:22:50.514Z,100582.85
2022-08-30T21:27:53.773Z,100584.44
2022-08-30T21:32:59.968Z,100583.73
2022-08-30T21:38:06.370Z,100582.96
2022-08-30T21:43:10.496Z,100581.38
2022-08-30T21:48:13.734Z,100585.65
2022-08-30T21:53:17.288Z,100587.18
2022-08-30T21:58:19.812Z,100584.99
2022-08-30T22:03:22.111Z,100588.33
2022-08-30T22:08:24.493Z,100583.02
2022-08-30T22:13:26.931Z,100580.05
2022-08-30T22:18:30.577Z,100582.30
2022-08-30T22:23:33.180Z,100581.65
2022-08-30T22:28:35.796Z,100573.96
2022-08-30T22:33:38.141Z,100578.36
2022-08-30T22:38:40.824Z,100584.66
2022-08-30T22:43:43.525Z,100581.73
2022-08-30T22:48:46.549Z,100582.42
2022-08-30T22:53:49.846Z,100580.39
2022-08-30T22:58:53.763Z,100581.77
2022-08-30T23:03:56.854Z,100581.30
2022-08-30T23:08:59.184Z,100582.40
2022-08-30T23:14:01.987Z,100584.20
2022-08-30T23:19:04.303Z,100586.57
2022-08-30T23:24:22.721Z,100579.73
2022-08-30T23:29:40.138Z,100580.50
2022-08-30T23:35:17.279Z,100583.94
2022-08-30T23:40:35.807Z,100582.10
2022-08-30T23:45:54.268Z,100574.95
2022-08-30T23:51:12.825Z,100581.63
2022-08-30T23:56:40.401Z,100571.89
